Time;durP1;ratioP1;P1;durP2;ratioP2;P2;SDS_P1;SDS_P2;PMS_P1;PMS_P2;Temp;Humidity;BMP_temperature;BMP_pressure;BME280_temperature;BME280_humidity;BME280_pressure;Samples;Min_cycle;Max_cycle;Signal;HPM_P1;HPM_P2
2022/05/27 00:00:20;;;;;;;2.45;1.05;;;18.20;99.90;;;;;;5020270;28;20014;-87
2022/05/27 00:02:48;;;;;;;4.22;1.48;;;18.20;99.90;;;;;;5019989;28;20098;-87
2022/05/27 00:05:14;;;;;;;5.32;1.30;;;18.10;99.90;;;;;;5017832;28;20018;-87
2022/05/27 00:07:40;;;;;;;5.65;1.15;;;18.10;99.90;;;;;;5019710;28;20022;-85
2022/05/27 00:10:07;;;;;;;2.95;1.20;;;18.00;99.90;;;;;;5019421;28;20032;-86
2022/05/27 00:12:34;;;;;;;4.93;1.42;;;18.00;99.90;;;;;;5017140;28;20022;-85
2022/05/27 00:15:00;;;;;;;2.08;1.10;;;18.00;99.90;;;;;;5012496;28;20030;-88
2022/05/27 00:17:27;;;;;;;3.22;1.20;;;18.00;99.90;;;;;;5008986;28;20019;-86
2022/05/27 00:19:52;;;;;;;2.55;1.20;;;17.90;99.90;;;;;;5002949;28;20010;-86
2022/05/27 00:22:18;;;;;;;4.95;1.38;;;17.90;99.90;;;;;;5019392;28;20205;-86
2022/05/27 00:24:44;;;;;;;3.95;1.30;;;18.00;99.90;;;;;;5027085;23;20042;-79
2022/05/27 00:27:10;;;;;;;6.43;2.08;;;17.90;99.90;;;;;;5015796;28;20066;-80
2022/05/27 00:29:37;;;;;;;3.80;1.20;;;17.90;99.90;;;;;;5006305;28;20026;-80
2022/05/27 00:32:04;;;;;;;3.67;1.15;;;17.90;99.90;;;;;;5003626;28;20037;-80
2022/05/27 00:34:30;;;;;;;2.80;1.13;;;17.90;99.90;;;;;;5000442;28;20057;-80
2022/05/27 00:36:56;;;;;;;4.65;1.23;;;17.90;99.90;;;;;;5001378;28;20227;-82
2022/05/27 00:39:22;;;;;;;1.67;1.15;;;17.90;99.90;;;;;;5001164;28;20019;-80
2022/05/27 00:41:47;;;;;;;3.10;1.20;;;17.90;99.90;;;;;;5002232;28;20030;-80
2022/05/27 00:44:13;;;;;;;2.75;1.10;;;17.80;99.90;;;;;;5001684;28;20110;-80
2022/05/27 00:46:42;;;;;;;4.22;1.40;;;17.90;99.90;;;;;;5003174;28;20023;-80
2022/05/27 00:49:22;;;;;;;2.63;1.08;;;17.90;99.90;;;;;;5002306;28;20080;-80
2022/05/27 00:51:53;;;;;;;2.40;1.17;;;17.80;99.90;;;;;;5000488;28;20049;-80
2022/05/27 00:54:22;;;;;;;3.70;1.13;;;17.80;99.90;;;;;;5001764;28;20023;-80
2022/05/27 00:56:54;;;;;;;3.95;1.40;;;17.80;99.90;;;;;;5000097;28;20022;-80
2022/05/27 00:59:28;;;;;;;3.92;1.10;;;17.80;99.90;;;;;;5002318;28;20022;-80
2022/05/27 01:01:53;;;;;;;2.30;1.00;;;17.70;99.90;;;;;;5007406;28;20030;-79
2022/05/27 01:04:20;;;;;;;2.20;1.08;;;17.70;99.90;;;;;;5002149;28;20022;-80
2022/05/27 01:06:46;;;;;;;1.40;0.93;;;17.70;99.90;;;;;;5004973;28;20078;-79
2022/05/27 01:09:13;;;;;;;1.05;0.77;;;17.60;99.90;;;;;;5013475;28;20414;-79
2022/05/27 01:12:02;;;;;;;1.67;1.00;;;17.60;99.90;;;;;;5013652;28;20046;-79
2022/05/27 01:14:30;;;;;;;3.30;1.08;;;17.60;99.90;;;;;;5004405;28;20030;-81
2022/05/27 01:17:21;;;;;;;6.28;1.27;;;17.60;99.90;;;;;;5009689;28;20216;-79
2022/05/27 01:20:21;;;;;;;2.83;0.95;;;17.70;99.90;;;;;;5012921;28;20030;-80
2022/05/27 01:23:15;;;;;;;2.97;1.42;;;17.70;99.90;;;;;;5000472;28;20074;-79
2022/05/27 01:26:00;;;;;;;9.52;0.85;;;17.70;99.90;;;;;;5002145;28;20569;-80
2022/05/27 01:28:50;;;;;;;3.07;1.00;;;17.70;99.90;;;;;;5002370;28;20026;-80
2022/05/27 01:31:28;;;;;;;3.35;1.00;;;17.70;99.90;;;;;;5008185;28;20030;-80
2022/05/27 01:34:11;;;;;;;3.63;1.27;;;17.60;99.90;;;;;;5002603;28;20577;-79
2022/05/27 01:36:42;;;;;;;3.67;1.10;;;17.60;99.90;;;;;;5006523;28;20026;-81
2022/05/27 01:39:14;;;;;;;1.63;1.10;;;17.60;99.90;;;;;;5004092;28;20502;-79
2022/05/27 01:41:57;;;;;;;2.28;1.02;;;17.60;99.90;;;;;;5003046;28;20053;-82
2022/05/27 01:44:44;;;;;;;3.50;1.20;;;17.50;99.90;;;;;;5005603;28;20026;-79
2022/05/27 01:47:21;;;;;;;3.88;1.38;;;17.50;99.90;;;;;;5011373;28;20021;-80
2022/05/27 01:49:53;;;;;;;6.72;1.35;;;17.50;99.90;;;;;;5010070;28;20100;-79
2022/05/27 01:52:24;;;;;;;2.92;1.00;;;17.50;99.90;;;;;;5007361;28;20098;-80
2022/05/27 01:55:13;;;;;;;3.90;0.90;;;17.40;99.90;;;;;;5006625;28;20081;-80
2022/05/27 01:57:48;;;;;;;4.53;1.05;;;17.40;99.90;;;;;;5008366;28;20026;-80
2022/05/27 02:00:18;;;;;;;2.35;1.00;;;17.40;99.90;;;;;;5007334;28;20034;-78
2022/05/27 02:02:53;;;;;;;1.88;0.88;;;17.40;99.90;;;;;;5009935;28;20026;-80
2022/05/27 02:05:42;;;;;;;4.30;0.90;;;17.30;99.90;;;;;;5009723;28;20085;-79
2022/05/27 02:08:20;;;;;;;7.00;1.05;;;17.30;99.90;;;;;;5008019;28;20049;-79
2022/05/27 02:11:15;;;;;;;1.33;1.10;;;17.30;99.90;;;;;;5011038;28;20038;-79
2022/05/27 02:13:45;;;;;;;5.33;1.30;;;17.30;99.90;;;;;;5011343;28;20052;-80
2022/05/27 02:16:20;;;;;;;2.72;1.00;;;17.20;99.90;;;;;;5013482;28;20294;-80
2022/05/27 02:18:50;;;;;;;2.42;1.27;;;17.30;99.90;;;;;;5011084;28;20669;-78
2022/05/27 02:21:22;;;;;;;2.88;1.08;;;17.20;99.90;;;;;;5008999;28;20022;-79
2022/05/27 02:24:11;;;;;;;2.88;1.00;;;17.30;99.90;;;;;;5013860;28;20046;-79
2022/05/27 02:26:46;;;;;;;1.95;1.23;;;17.30;99.90;;;;;;5000933;28;20053;-79
2022/05/27 02:29:16;;;;;;;2.17;1.15;;;17.20;99.90;;;;;;5009407;28;20042;-79
2022/05/27 02:31:49;;;;;;;0.88;0.70;;;17.20;99.90;;;;;;5008862;28;20030;-80
2022/05/27 02:35:08;;;;;;;3.25;0.90;;;17.20;99.90;;;;;;5008332;28;20026;-78
2022/05/27 02:37:54;;;;;;;6.10;0.95;;;17.20;99.90;;;;;;5014047;28;20045;-79
2022/05/27 02:40:24;;;;;;;2.67;0.90;;;17.20;99.90;;;;;;5015741;28;20031;-79
2022/05/27 02:43:05;;;;;;;2.63;1.40;;;17.20;99.90;;;;;;5013096;28;20034;-78
2022/05/27 02:45:39;;;;;;;3.17;1.10;;;17.20;99.90;;;;;;5015104;28;20022;-79
2022/05/27 02:48:21;;;;;;;12.00;1.00;;;17.20;99.90;;;;;;5014462;28;20099;-79
2022/05/27 02:50:53;;;;;;;4.65;1.17;;;17.20;99.90;;;;;;5015271;28;20031;-79
2022/05/27 02:53:48;;;;;;;2.08;1.15;;;17.20;99.90;;;;;;5015283;28;20041;-79
2022/05/27 02:56:46;;;;;;;3.28;0.95;;;17.20;99.90;;;;;;5016921;28;20034;-79
2022/05/27 02:59:14;;;;;;;2.35;1.13;;;17.20;99.90;;;;;;5012580;28;20483;-79
2022/05/27 03:01:40;;;;;;;3.70;1.20;;;17.30;99.90;;;;;;5015948;28;20009;-79
2022/05/27 03:04:07;;;;;;;4.45;1.30;;;17.30;99.90;;;;;;5014189;28;20030;-79
2022/05/27 03:07:03;;;;;;;2.50;1.13;;;17.40;99.90;;;;;;5016145;28;20019;-79
2022/05/27 03:09:40;;;;;;;4.20;1.20;;;17.40;99.90;;;;;;5014626;28;20402;-80
2022/05/27 03:12:15;;;;;;;2.78;0.95;;;17.30;99.90;;;;;;5009997;28;20034;-79
2022/05/27 03:14:52;;;;;;;2.38;1.25;;;17.40;99.90;;;;;;5007067;28;20062;-79
2022/05/27 03:17:28;;;;;;;3.92;1.20;;;17.40;99.90;;;;;;5008065;28;20030;-80
2022/05/27 03:20:05;;;;;;;2.13;1.00;;;17.40;99.90;;;;;;5006464;28;20026;-80
2022/05/27 03:22:37;;;;;;;6.20;1.13;;;17.30;99.90;;;;;;5005301;28;20363;-80
2022/05/27 03:25:32;;;;;;;3.67;1.15;;;17.30;99.90;;;;;;5005800;28;20177;-80
2022/05/27 03:28:10;;;;;;;2.45;1.08;;;17.30;99.90;;;;;;5004030;28;20035;-80
2022/05/27 03:31:05;;;;;;;1.75;1.33;;;17.30;99.90;;;;;;5005198;28;20025;-79
2022/05/27 03:33:52;;;;;;;2.20;0.95;;;17.30;99.90;;;;;;5013041;28;20023;-80
2022/05/27 03:36:37;;;;;;;1.33;0.80;;;17.30;99.90;;;;;;5014232;28;20049;-80
2022/05/27 03:39:26;;;;;;;2.63;1.00;;;17.30;99.90;;;;;;5015478;28;20099;-80
2022/05/27 03:42:08;;;;;;;1.58;0.90;;;17.30;99.90;;;;;;5014175;28;20110;-80
2022/05/27 03:44:34;;;;;;;4.10;1.08;;;17.30;99.90;;;;;;5013197;28;20022;-81
2022/05/27 03:47:01;;;;;;;1.23;0.93;;;17.30;99.90;;;;;;5011892;28;20030;-79
2022/05/27 03:49:28;;;;;;;2.88;1.17;;;17.20;99.90;;;;;;5012280;28;20125;-79
2022/05/27 03:52:07;;;;;;;2.85;1.10;;;17.20;99.90;;;;;;5012788;28;20066;-80
2022/05/27 03:54:33;;;;;;;2.67;1.05;;;17.20;99.90;;;;;;5015150;28;20041;-79
2022/05/27 03:56:59;;;;;;;2.42;1.10;;;17.20;99.90;;;;;;5010467;28;20015;-80
2022/05/27 03:59:26;;;;;;;4.18;1.33;;;17.20;99.90;;;;;;5005339;28;20034;-80
2022/05/27 04:01:54;;;;;;;7.40;1.65;;;17.20;99.90;;;;;;5007583;28;20093;-78
2022/05/27 04:04:23;;;;;;;3.90;0.90;;;17.30;99.90;;;;;;5013759;28;20026;-79
2022/05/27 04:06:49;;;;;;;2.97;1.10;;;17.20;99.90;;;;;;5014108;28;20023;-78
2022/05/27 04:09:17;;;;;;;3.15;1.75;;;17.30;99.90;;;;;;5014255;28;20018;-78
2022/05/27 04:11:43;;;;;;;3.63;1.23;;;17.30;99.90;;;;;;5015370;28;20026;-78
2022/05/27 04:14:09;;;;;;;3.53;1.05;;;17.30;99.90;;;;;;5013735;28;20049;-79
2022/05/27 04:16:35;;;;;;;6.13;1.60;;;17.30;99.90;;;;;;5002958;28;20505;-80
2022/05/27 04:19:01;;;;;;;4.95;1.35;;;17.30;99.90;;;;;;5004069;28;20030;-78
2022/05/27 04:21:27;;;;;;;5.75;1.35;;;17.40;99.90;;;;;;5001719;28;20505;-80
2022/05/27 04:23:53;;;;;;;3.72;1.40;;;17.50;99.90;;;;;;5000800;28;20092;-81
2022/05/27 04:26:19;;;;;;;2.70;1.10;;;17.50;99.90;;;;;;5002756;28;20061;-80
2022/05/27 04:28:44;;;;;;;1.27;1.00;;;17.50;99.90;;;;;;5004501;28;20042;-78
2022/05/27 04:31:11;;;;;;;3.90;1.08;;;17.60;99.90;;;;;;5001882;28;20038;-82
2022/05/27 04:33:37;;;;;;;3.20;1.20;;;17.70;99.90;;;;;;5002454;28;20030;-81
2022/05/27 04:36:04;;;;;;;5.05;1.10;;;17.90;99.90;;;;;;5003804;28;20026;-81
2022/05/27 04:38:30;;;;;;;6.15;1.17;;;18.00;99.90;;;;;;5008635;28;20031;-79
2022/05/27 04:40:56;;;;;;;2.05;1.20;;;18.00;99.90;;;;;;5013278;28;20041;-80
2022/05/27 04:43:22;;;;;;;5.18;3.13;;;18.10;99.90;;;;;;5002888;28;20486;-80
2022/05/27 04:45:47;;;;;;;2.17;1.10;;;18.20;99.90;;;;;;5001997;28;20026;-81
2022/05/27 04:48:14;;;;;;;4.05;1.17;;;18.30;99.90;;;;;;5006787;28;20015;-83
2022/05/27 04:50:40;;;;;;;4.32;1.30;;;18.50;99.90;;;;;;5007116;28;20023;-81
2022/05/27 04:53:06;;;;;;;3.05;0.90;;;18.80;99.90;;;;;;5002717;28;20022;-82
2022/05/27 04:55:34;;;;;;;3.50;0.85;;;19.00;99.90;;;;;;5005688;28;20026;-79
2022/05/27 04:58:00;;;;;;;2.50;1.30;;;19.20;99.90;;;;;;5007860;28;20402;-81
2022/05/27 05:00:32;;;;;;;4.05;1.27;;;19.20;99.90;;;;;;5000673;28;20026;-80
2022/05/27 05:02:58;;;;;;;7.85;1.70;;;19.20;99.90;;;;;;5002125;28;20034;-79
2022/05/27 05:05:26;;;;;;;4.07;1.42;;;19.30;99.90;;;;;;4987526;28;20030;-81
2022/05/27 05:08:01;;;;;;;3.95;1.20;;;19.30;99.90;;;;;;5002826;28;20034;-80
2022/05/27 05:10:27;;;;;;;5.93;1.10;;;19.30;99.90;;;;;;5004137;28;20390;-79
2022/05/27 05:12:53;;;;;;;3.50;0.90;;;19.30;99.90;;;;;;5001322;28;20027;-81
2022/05/27 05:15:23;;;;;;;6.97;1.33;;;19.20;99.90;;;;;;5002608;28;20057;-81
2022/05/27 05:17:49;;;;;;;3.35;1.77;;;19.30;99.90;;;;;;5002896;28;20117;-82
2022/05/27 05:20:18;;;;;;;2.88;1.30;;;19.40;99.90;;;;;;5003323;28;20061;-81
2022/05/27 05:22:43;;;;;;;4.38;2.50;;;19.50;99.90;;;;;;5004135;28;20038;-82
2022/05/27 05:25:10;;;;;;;11.13;2.38;;;19.50;99.90;;;;;;5002796;28;20048;-81
2022/05/27 05:27:38;;;;;;;8.00;1.42;;;19.50;99.90;;;;;;5002744;28;20073;-81
2022/05/27 05:30:06;;;;;;;8.65;1.48;;;19.30;99.90;;;;;;5001729;28;20030;-81
2022/05/27 05:32:32;;;;;;;5.00;1.30;;;19.70;99.90;;;;;;5001490;28;20026;-82
2022/05/27 05:34:59;;;;;;;6.15;1.35;;;20.10;99.90;;;;;;5005068;28;20037;-80
2022/05/27 05:37:26;;;;;;;5.75;1.40;;;20.20;99.90;;;;;;5012119;28;20031;-81
2022/05/27 05:39:52;;;;;;;6.57;1.48;;;20.30;99.90;;;;;;5010410;28;20050;-82
2022/05/27 05:42:19;;;;;;;2.90;1.05;;;20.40;99.90;;;;;;5011895;28;20041;-79
2022/05/27 05:44:45;;;;;;;5.60;1.30;;;20.40;99.90;;;;;;5007795;28;20042;-81
2022/05/27 05:47:11;;;;;;;4.93;1.23;;;20.30;99.90;;;;;;5005839;28;20117;-82
2022/05/27 05:49:37;;;;;;;2.47;1.20;;;20.30;99.90;;;;;;5007061;28;20033;-81
2022/05/27 05:52:04;;;;;;;2.33;1.27;;;20.30;99.90;;;;;;5006265;28;20083;-81
2022/05/27 05:54:31;;;;;;;10.88;1.45;;;20.30;99.90;;;;;;5001947;28;20026;-81
2022/05/27 05:57:02;;;;;;;1.83;1.30;;;20.40;99.90;;;;;;5003497;28;20090;-81
2022/05/27 05:59:32;;;;;;;4.50;1.40;;;20.30;99.90;;;;;;5004328;28;20073;-80
2022/05/27 06:01:59;;;;;;;3.72;1.23;;;20.40;99.90;;;;;;5005213;28;20062;-81
2022/05/27 06:04:25;;;;;;;4.40;1.60;;;20.40;99.90;;;;;;5002325;28;20061;-80
2022/05/27 06:06:51;;;;;;;3.60;1.00;;;20.40;99.90;;;;;;5003490;28;20027;-82
2022/05/27 06:09:19;;;;;;;3.35;1.02;;;20.50;99.90;;;;;;5002456;28;20427;-81
2022/05/27 06:11:45;;;;;;;5.07;1.40;;;20.60;99.90;;;;;;5009584;28;20113;-80
2022/05/27 06:14:11;;;;;;;4.80;1.25;;;20.70;99.90;;;;;;5012596;28;20010;-80
2022/05/27 06:16:39;;;;;;;8.07;0.95;;;20.70;99.80;;;;;;5008273;28;20520;-82
2022/05/27 06:19:04;;;;;;;2.20;1.10;;;20.70;99.80;;;;;;5002121;28;20022;-81
2022/05/27 06:21:30;;;;;;;2.40;1.00;;;20.60;99.80;;;;;;5010355;28;20030;-81
2022/05/27 06:23:56;;;;;;;3.47;0.95;;;20.60;99.50;;;;;;5066768;23;20576;-91
2022/05/27 06:26:22;;;;;;;3.25;1.10;;;20.50;99.60;;;;;;5004795;28;20030;-89
2022/05/27 06:34:23;;;;;;;3.63;1.00;;;20.50;99.50;;;;;;5006351;28;20057;-89
2022/05/27 06:36:57;;;;;;;4.80;1.42;;;20.70;99.50;;;;;;4998576;28;20038;-89
2022/05/27 06:39:24;;;;;;;6.57;1.27;;;20.80;99.40;;;;;;4987230;28;20050;-89
2022/05/27 06:41:50;;;;;;;9.90;1.45;;;20.90;99.10;;;;;;5003114;28;20031;-89
2022/05/27 06:44:17;;;;;;;4.30;1.05;;;21.00;99.30;;;;;;5005412;28;20030;-89
2022/05/27 06:46:43;;;;;;;3.47;1.23;;;21.10;99.30;;;;;;5005046;28;20495;-89
2022/05/27 06:49:09;;;;;;;3.35;1.10;;;21.20;99.00;;;;;;5013566;28;20038;-90
2022/05/27 06:51:42;;;;;;;3.60;1.10;;;21.10;98.60;;;;;;5017056;28;20068;-88
2022/05/27 06:54:09;;;;;;;2.20;1.00;;;21.10;99.20;;;;;;5017147;28;20055;-86
2022/05/27 06:56:39;;;;;;;2.50;0.93;;;21.20;98.80;;;;;;5017396;28;20034;-86
2022/05/27 06:59:06;;;;;;;4.07;1.20;;;21.20;98.70;;;;;;5016791;28;20022;-86
2022/05/27 07:01:32;;;;;;;3.75;1.25;;;21.30;98.70;;;;;;5016482;28;20019;-86
2022/05/27 07:03:58;;;;;;;5.40;1.00;;;21.40;98.40;;;;;;5016010;28;20054;-88
2022/05/27 07:06:28;;;;;;;1.92;0.90;;;21.40;98.30;;;;;;4996080;28;20026;-89
2022/05/27 07:08:54;;;;;;;2.50;1.10;;;21.40;98.70;;;;;;5014798;28;20049;-88
2022/05/27 07:11:20;;;;;;;2.67;1.30;;;21.40;98.40;;;;;;4997856;28;20058;-91
2022/05/27 07:13:46;;;;;;;5.78;1.35;;;21.40;98.60;;;;;;5010337;28;20074;-86
2022/05/27 07:16:11;;;;;;;1.50;0.98;;;21.50;98.40;;;;;;5010146;28;20022;-88
2022/05/27 07:18:37;;;;;;;3.55;1.30;;;21.40;98.20;;;;;;4990697;28;20026;-88
2022/05/27 07:21:05;;;;;;;4.30;1.10;;;21.30;98.20;;;;;;5006174;28;20038;-87
2022/05/27 07:23:32;;;;;;;5.10;1.30;;;21.30;98.50;;;;;;5005029;28;20616;-88
2022/05/27 07:25:58;;;;;;;2.47;1.08;;;21.50;98.50;;;;;;5006205;28;20034;-88
2022/05/27 07:28:25;;;;;;;4.20;1.02;;;21.50;98.00;;;;;;5012091;28;20030;-86
2022/05/27 07:30:53;;;;;;;7.07;1.13;;;21.60;97.90;;;;;;5006346;28;20038;-88
2022/05/27 07:33:20;;;;;;;5.55;1.20;;;21.70;97.60;;;;;;5007306;28;20034;-88
2022/05/27 07:35:46;;;;;;;4.47;1.20;;;21.70;97.40;;;;;;5006917;28;20026;-87
2022/05/27 07:38:12;;;;;;;5.18;1.10;;;21.90;97.80;;;;;;5007572;28;20034;-88
2022/05/27 07:40:39;;;;;;;2.53;0.90;;;22.00;97.60;;;;;;5011272;28;20077;-86
2022/05/27 07:43:08;;;;;;;12.98;1.85;;;22.00;97.10;;;;;;5010621;28;20045;-87
2022/05/27 07:45:39;;;;;;;2.95;1.20;;;21.80;97.00;;;;;;5003504;28;20054;-89
2022/05/27 07:48:05;;;;;;;5.28;1.50;;;21.80;97.50;;;;;;5011388;28;20034;-86
2022/05/27 07:50:31;;;;;;;2.53;1.00;;;21.90;97.40;;;;;;5013572;28;20027;-88
2022/05/27 07:52:57;;;;;;;6.82;1.10;;;22.00;97.30;;;;;;5009848;28;20030;-90
2022/05/27 07:55:23;;;;;;;10.38;1.38;;;22.10;97.20;;;;;;5012656;28;20021;-86
2022/05/27 07:57:49;;;;;;;12.77;1.23;;;22.10;96.80;;;;;;5009022;28;20023;-88
2022/05/27 08:00:16;;;;;;;6.97;1.23;;;22.00;96.70;;;;;;5014789;28;20046;-88
2022/05/27 08:02:42;;;;;;;9.95;1.17;;;22.10;96.70;;;;;;5016499;28;20027;-87
2022/05/27 08:05:11;;;;;;;10.13;1.40;;;22.00;96.80;;;;;;5019083;28;20017;-87
2022/05/27 08:07:38;;;;;;;7.25;1.20;;;22.10;96.90;;;;;;5019199;28;20030;-88
2022/05/27 08:10:04;;;;;;;6.43;1.67;;;22.30;96.90;;;;;;5019342;28;20018;-89
2022/05/27 08:12:31;;;;;;;5.28;1.35;;;22.40;96.60;;;;;;5018630;28;20014;-89
2022/05/27 08:14:57;;;;;;;4.25;1.20;;;22.60;96.40;;;;;;5014553;28;20094;-88
2022/05/27 08:17:23;;;;;;;6.90;1.20;;;22.50;96.30;;;;;;5013833;28;20599;-89
2022/05/27 08:19:49;;;;;;;2.90;0.88;;;22.60;96.00;;;;;;5016155;28;20318;-89
2022/05/27 08:22:15;;;;;;;7.50;1.40;;;22.60;95.60;;;;;;5016718;28;20030;-88
2022/05/27 08:24:41;;;;;;;3.47;1.30;;;22.40;95.80;;;;;;5018409;28;20236;-88
2022/05/27 08:27:08;;;;;;;5.72;1.00;;;22.50;95.90;;;;;;5018876;28;20022;-88
2022/05/27 08:29:34;;;;;;;5.30;1.20;;;22.60;95.90;;;;;;5018713;28;20043;-87
2022/05/27 08:32:03;;;;;;;7.10;1.30;;;22.80;95.60;;;;;;5018329;28;20026;-88
2022/05/27 08:40:24;;;;;;;8.30;1.10;;;22.60;95.50;;;;;;5010073;28;20045;-90
2022/05/27 08:43:21;;;;;;;9.02;1.40;;;22.50;95.60;;;;;;5014964;28;20046;-88
2022/05/27 08:46:19;;;;;;;7.97;1.30;;;22.50;95.80;;;;;;5018189;28;20043;-88
2022/05/27 08:48:49;;;;;;;8.15;1.02;;;22.70;95.40;;;;;;5011824;28;20038;-90
2022/05/27 08:51:35;;;;;;;4.43;1.13;;;22.60;95.30;;;;;;5011825;28;20030;-90
2022/05/27 08:54:29;;;;;;;10.55;1.75;;;22.60;95.10;;;;;;5009813;28;20038;-89
2022/05/27 09:00:08;;;;;;;8.23;1.38;;;22.70;95.10;;;;;;5018656;28;20026;-90
2022/05/27 09:02:45;;;;;;;23.80;1.65;;;22.70;95.00;;;;;;4989274;28;20038;-90
2022/05/27 09:05:39;;;;;;;8.82;1.23;;;22.40;95.00;;;;;;5001755;28;20026;-89
2022/05/27 09:08:19;;;;;;;20.90;1.60;;;22.50;95.20;;;;;;5016870;28;20046;-90
2022/05/27 09:10:51;;;;;;;12.15;1.77;;;22.60;95.30;;;;;;5017564;28;20035;-90
2022/05/27 09:13:22;;;;;;;15.32;1.70;;;22.80;95.00;;;;;;5017536;28;20045;-90
2022/05/27 09:15:58;;;;;;;5.45;1.10;;;23.00;94.90;;;;;;4996701;28;20034;-90
2022/05/27 09:18:29;;;;;;;10.68;1.00;;;23.00;94.60;;;;;;5014360;28;20034;-91
2022/05/27 09:21:32;;;;;;;8.45;1.33;;;23.10;94.50;;;;;;5014429;28;20058;-90
2022/05/27 09:24:15;;;;;;;5.03;1.33;;;23.20;94.40;;;;;;4996615;28;20049;-89
2022/05/27 09:26:45;;;;;;;7.28;1.00;;;23.30;94.50;;;;;;5013782;28;20034;-90
2022/05/27 09:29:33;;;;;;;9.38;1.20;;;23.30;94.30;;;;;;4997244;28;20014;-91
2022/05/27 09:32:26;;;;;;;5.15;1.10;;;23.40;94.20;;;;;;5016244;28;20046;-90
2022/05/27 09:34:58;;;;;;;15.02;1.85;;;23.50;93.80;;;;;;4990950;28;20323;-89
2022/05/27 09:37:34;;;;;;;9.38;1.58;;;23.60;93.70;;;;;;5016046;28;20045;-89
2022/05/27 09:40:07;;;;;;;5.85;1.10;;;23.80;93.70;;;;;;5017948;28;20027;-90
2022/05/27 09:42:42;;;;;;;8.25;1.35;;;23.90;93.70;;;;;;4999063;28;20042;-91
2022/05/27 09:45:09;;;;;;;8.63;1.25;;;24.20;93.30;;;;;;4982124;28;20062;-89
2022/05/27 09:47:35;;;;;;;11.95;1.83;;;24.40;93.10;;;;;;4998361;28;20043;-92
2022/05/27 09:50:22;;;;;;;5.78;1.10;;;25.00;92.70;;;;;;4999084;28;20027;-90
2022/05/27 09:52:50;;;;;;;6.05;1.45;;;25.20;92.20;;;;;;4982257;28;20034;-91
2022/05/27 09:55:30;;;;;;;8.18;1.17;;;25.70;91.60;;;;;;4982383;28;20019;-93
2022/05/27 09:58:02;;;;;;;8.43;1.55;;;26.60;90.40;;;;;;4981983;28;20047;-93
2022/05/27 10:00:37;;;;;;;8.30;1.80;;;27.10;88.90;;;;;;4998584;28;20015;-94
2022/05/27 10:03:30;;;;;;;14.52;1.50;;;27.80;87.10;;;;;;4998199;28;20042;-90
2022/05/27 10:05:57;;;;;;;10.77;1.20;;;28.50;84.80;;;;;;4990516;28;20042;-92
2022/05/27 10:08:54;;;;;;;6.05;1.02;;;29.20;82.90;;;;;;4998263;28;20042;-89
2022/05/27 10:11:25;;;;;;;10.63;1.25;;;29.70;81.00;;;;;;4998023;28;20031;-90
2022/05/27 10:14:06;;;;;;;11.38;1.00;;;30.10;79.40;;;;;;4997984;28;20035;-90
2022/05/27 10:16:33;;;;;;;2.20;1.10;;;30.30;78.40;;;;;;4981566;28;20045;-91
2022/05/27 10:19:10;;;;;;;3.92;1.13;;;31.60;76.10;;;;;;4997363;28;20035;-92
2022/05/27 10:21:59;;;;;;;4.32;1.10;;;32.10;73.40;;;;;;4997599;28;20046;-91
2022/05/27 10:24:36;;;;;;;14.40;1.27;;;33.10;71.70;;;;;;4980002;28;20035;-89
2022/05/27 10:27:19;;;;;;;6.53;1.15;;;33.90;68.80;;;;;;4995404;28;20088;-90
2022/05/27 10:29:55;;;;;;;3.45;0.90;;;31.40;69.80;;;;;;4995376;28;20157;-91
2022/05/27 10:32:32;;;;;;;11.45;1.65;;;30.30;70.70;;;;;;4976659;28;20035;-90
2022/05/27 10:35:01;;;;;;;8.88;1.10;;;29.00;72.30;;;;;;4988539;28;20034;-90
2022/05/27 10:38:10;;;;;;;6.05;1.05;;;28.70;72.60;;;;;;4972349;28;20058;-91
2022/05/27 10:40:43;;;;;;;5.90;1.08;;;28.80;72.80;;;;;;4971592;28;20386;-90
2022/05/27 10:43:15;;;;;;;10.37;1.40;;;30.60;71.50;;;;;;4987526;28;20069;-89
2022/05/27 10:45:48;;;;;;;10.65;1.27;;;31.80;69.40;;;;;;4971759;28;20123;-90
2022/05/27 10:48:35;;;;;;;3.55;0.95;;;30.50;69.40;;;;;;4987692;28;20042;-90
2022/05/27 10:51:34;;;;;;;6.03;0.95;;;30.80;70.20;;;;;;4994512;28;20038;-91
2022/05/27 10:54:14;;;;;;;3.92;1.10;;;30.60;70.60;;;;;;4985759;28;20074;-90
2022/05/27 11:03:06;;;;;;;10.85;1.23;;;32.00;68.70;;;;;;4999305;28;20023;-92
2022/05/27 11:06:04;;;;;;;10.93;1.30;;;33.20;66.30;;;;;;5000957;28;20027;-92
2022/05/27 11:08:33;;;;;;;5.93;1.02;;;33.40;65.70;;;;;;5001528;28;20037;-92
2022/05/27 11:11:01;;;;;;;6.88;0.90;;;33.60;65.00;;;;;;5001261;28;20014;-90
2022/05/27 11:17:08;;;;;;;3.90;0.80;;;32.60;65.30;;;;;;4986265;28;20035;-89
2022/05/27 11:20:01;;;;;;;14.18;1.52;;;33.30;65.10;;;;;;4971495;28;20050;-88
2022/05/27 11:22:48;;;;;;;6.55;1.20;;;34.40;63.00;;;;;;4988835;28;20038;-88
2022/05/27 11:25:23;;;;;;;3.45;1.00;;;34.60;62.70;;;;;;4988017;28;20038;-89
2022/05/27 11:28:00;;;;;;;2.53;1.30;;;34.20;63.10;;;;;;4975701;28;20035;-92
2022/05/27 11:30:51;;;;;;;5.20;0.90;;;34.30;63.20;;;;;;4998998;28;20034;-91
2022/05/27 11:33:50;;;;;;;3.05;1.02;;;35.10;61.70;;;;;;4998515;28;20262;-89
2022/05/27 11:36:43;;;;;;;7.57;1.30;;;35.30;61.20;;;;;;4996122;28;20069;-89
2022/05/27 11:39:35;;;;;;;4.65;1.13;;;35.50;61.00;;;;;;5000212;28;20019;-92
2022/05/27 11:42:19;;;;;;;4.75;1.27;;;35.50;60.60;;;;;;4982601;28;20069;-90
2022/05/27 11:45:18;;;;;;;3.75;1.13;;;32.90;61.80;;;;;;4994067;28;20057;-89
2022/05/27 11:48:08;;;;;;;2.45;1.52;;;32.70;62.60;;;;;;4997253;28;20046;-91
2022/05/27 11:51:00;;;;;;;11.55;2.50;;;31.50;63.80;;;;;;5000205;28;20091;-91
2022/05/27 11:53:36;;;;;;;4.78;1.00;;;32.70;63.30;;;;;;4982804;28;20042;-90
2022/05/27 11:56:17;;;;;;;7.13;1.20;;;33.70;62.50;;;;;;4997609;28;20046;-89
2022/05/27 11:58:46;;;;;;;2.53;0.90;;;34.00;61.20;;;;;;4997332;28;20165;-91
2022/05/27 12:01:39;;;;;;;3.65;1.02;;;34.30;61.80;;;;;;4994385;28;20054;-90
2022/05/27 12:04:31;;;;;;;3.00;1.10;;;35.80;60.60;;;;;;4970489;28;20038;-89
2022/05/27 12:07:22;;;;;;;3.90;0.90;;;37.20;59.10;;;;;;4972402;28;20066;-90
2022/05/27 12:10:11;;;;;;;22.17;1.48;;;35.50;59.60;;;;;;4969578;28;20130;-89
2022/05/27 12:13:07;;;;;;;7.65;1.38;;;35.50;59.30;;;;;;4986889;28;20035;-88
2022/05/27 12:15:38;;;;;;;5.35;1.05;;;36.10;58.80;;;;;;4972170;28;20118;-91
2022/05/27 12:18:19;;;;;;;5.13;1.63;;;36.40;58.20;;;;;;4969025;28;20039;-88
2022/05/27 12:20:46;;;;;;;5.57;1.10;;;36.60;57.70;;;;;;4984100;28;20490;-89
2022/05/27 12:23:12;;;;;;;2.40;1.08;;;37.10;57.30;;;;;;4985067;28;20027;-88
2022/05/27 12:25:48;;;;;;;4.45;0.73;;;37.90;56.80;;;;;;4976840;23;20095;-83
2022/05/27 12:28:26;;;;;;;4.18;0.93;;;37.90;55.80;;;;;;4944275;29;20047;-84
2022/05/27 12:30:53;;;;;;;3.22;0.80;;;37.10;56.40;;;;;;4949833;29;20032;-84
2022/05/27 12:33:23;;;;;;;1.20;0.93;;;37.60;55.90;;;;;;4958630;29;20062;-82
2022/05/27 12:35:54;;;;;;;4.28;1.05;;;37.60;55.70;;;;;;4943423;29;20046;-85
2022/05/27 12:38:43;;;;;;;4.28;1.02;;;38.10;54.80;;;;;;4942555;29;20482;-85
2022/05/27 12:41:09;;;;;;;2.58;0.80;;;37.10;55.20;;;;;;4943519;29;20028;-85
2022/05/27 12:43:53;;;;;;;4.60;1.20;;;36.30;56.20;;;;;;4942561;29;20024;-85
2022/05/27 12:46:35;;;;;;;3.67;0.67;;;36.20;56.40;;;;;;4943060;29;20036;-84
2022/05/27 12:49:26;;;;;;;5.03;0.95;;;36.60;56.50;;;;;;4944525;29;20039;-84
2022/05/27 12:51:52;;;;;;;7.82;0.75;;;37.20;56.10;;;;;;4944592;29;20159;-85
2022/05/27 12:54:43;;;;;;;5.80;1.10;;;36.70;55.60;;;;;;4943940;29;20027;-83
2022/05/27 13:03:33;;;;;;;4.22;1.00;;;37.10;55.20;;;;;;4944408;29;20062;-84
2022/05/27 13:06:15;;;;;;;4.40;0.95;;;36.90;54.50;;;;;;4943979;29;20028;-81
2022/05/27 13:09:20;;;;;;;14.82;1.20;;;37.40;54.40;;;;;;4943750;29;20059;-83
2022/05/27 13:11:46;;;;;;;9.45;1.00;;;37.60;53.40;;;;;;4928151;29;20044;-83
2022/05/27 13:14:56;;;;;;;4.07;0.70;;;35.50;55.50;;;;;;4953409;29;20110;-83
2022/05/27 13:17:33;;;;;;;2.63;0.77;;;35.80;55.20;;;;;;4891850;29;20040;-83
2022/05/27 13:20:19;;;;;;;4.95;1.10;;;36.80;54.40;;;;;;4951979;29;20047;-84
2022/05/27 13:23:27;;;;;;;3.40;1.10;;;37.00;54.00;;;;;;4945603;29;20032;-81
2022/05/27 13:26:22;;;;;;;7.60;0.90;;;37.80;53.50;;;;;;4888221;29;20033;-83
2022/05/27 13:28:57;;;;;;;3.33;1.10;;;38.60;53.20;;;;;;4887158;29;20048;-84
2022/05/27 13:31:40;;;;;;;8.65;0.82;;;39.70;52.30;;;;;;4926259;29;20076;-84
2022/05/27 13:34:07;;;;;;;5.45;0.80;;;40.10;51.70;;;;;;4943705;29;20028;-84
2022/05/27 13:36:38;;;;;;;4.13;1.13;;;39.40;51.60;;;;;;4944259;29;20106;-83
2022/05/27 13:39:09;;;;;;;4.13;1.10;;;38.40;51.70;;;;;;4943701;29;20559;-85
2022/05/27 13:41:45;;;;;;;2.53;1.10;;;38.00;52.00;;;;;;4951026;29;20023;-84
2022/05/27 13:44:16;;;;;;;1.10;0.63;;;37.40;52.00;;;;;;4954778;29;20036;-83
2022/05/27 13:46:47;;;;;;;8.10;1.17;;;37.40;51.80;;;;;;4952219;29;20020;-83
2022/05/27 13:49:12;;;;;;;7.50;0.90;;;36.40;52.50;;;;;;4952662;29;20067;-81
2022/05/27 13:51:44;;;;;;;6.75;0.85;;;35.90;52.70;;;;;;4955206;29;20031;-85